Navios*hios — SXJH — position and weather

sailwx.info

Track history (hours):
 
Tides and Currents Weather Stations Pressure Air Temp Water Temp Dewpoint Dewpoint Depression Visibility Wind Speed Wind Dir Waves Ship Positions

Navios*hios

Last reported at 2015-Aug-13 15:33 UTC. Time now 2015-Aug-30 14:00 UTC.
Position S 30°57' E 031°50'.
Warning: this ship's position is 16 days out of date.

Length 183 m; draft 10.3 m.

Type: Cargo ship. MMSI: 240149000.

Date/timePositionNaut miles runAvg speedWind from/ knotsBaromVisibWave heightAir tempDewpointWater temp
2015-Aug-13 15:33S 30°57' E 031°50'9 9.1
2015-Aug-13 14:33S 31°04' E 031°42'9 8.7
2015-Aug-13 13:33S 31°09' E 031°35'9 8.6
2015-Aug-13 12:33S 31°15' E 031°27'9 8.7
2015-Aug-13 11:33S 31°21' E 031°20'9 8.7
2015-Aug-13 10:33S 31°27' E 031°13'10 9.5
2015-Aug-13 09:33S 31°34' E 031°05'10 9.8
2015-Aug-13 08:33S 31°41' E 030°56'1110.8
2015-Aug-13 07:33S 31°48' E 030°47'1110.8
2015-Aug-13 06:31S 31°56' E 030°37'1010.2
2015-Aug-13 05:33S 32°03' E 030°29'10 9.8
2015-Aug-13 04:33S 32°10' E 030°21'  
Track history (hours):
 
Tides and Currents Weather Stations Pressure Air Temp Water Temp Dewpoint Dewpoint Depression Visibility Wind Speed Wind Dir Waves Ship Positions

Navios*hios

Last reported at 2015-Aug-13 15:33 UTC. Time now 2015-Aug-30 14:00 UTC.
Position S 30°57' E 031°50'.
Warning: this ship's position is 16 days out of date.

Length 183 m; draft 10.3 m.

Type: Cargo ship. MMSI: 240149000.

Date/timePositionNaut miles runAvg speedWind from/ knotsBaromVisibWave heightAir tempDewpointWater temp
2015-Aug-13 15:33S 30°57' E 031°50'9 9.1
2015-Aug-13 14:33S 31°04' E 031°42'9 8.7
2015-Aug-13 13:33S 31°09' E 031°35'9 8.6
2015-Aug-13 12:33S 31°15' E 031°27'9 8.7
2015-Aug-13 11:33S 31°21' E 031°20'9 8.7
2015-Aug-13 10:33S 31°27' E 031°13'10 9.5
2015-Aug-13 09:33S 31°34' E 031°05'10 9.8
2015-Aug-13 08:33S 31°41' E 030°56'1110.8
2015-Aug-13 07:33S 31°48' E 030°47'1110.8
2015-Aug-13 06:31S 31°56' E 030°37'1010.2
2015-Aug-13 05:33S 32°03' E 030°29'10 9.8
2015-Aug-13 04:33S 32°10' E 030°21'  

Dump ship's entire track history